Time;durP1;ratioP1;P1;durP2;ratioP2;P2;SDS_P1;SDS_P2;PMS_P1;PMS_P2;Temp;Humidity;BMP_temperature;BMP_pressure;BME280_temperature;BME280_humidity;BME280_pressure;Samples;Min_cycle;Max_cycle;Signal;HPM_P1;HPM_P2
2022/06/16 00:01:58;;;;;;;7.20;5.13;;;20.50;90.60;;;;;;5061476;28;20523;-87
2022/06/16 00:04:26;;;;;;;10.10;5.90;;;20.50;90.70;;;;;;5057082;28;20491;-86
2022/06/16 00:06:53;;;;;;;6.00;4.40;;;20.60;90.90;;;;;;5056399;28;20448;-87
2022/06/16 00:09:21;;;;;;;7.63;5.63;;;20.40;91.20;;;;;;5056058;28;20449;-87
2022/06/16 00:11:47;;;;;;;7.67;5.10;;;20.40;91.50;;;;;;5055435;28;20469;-87
2022/06/16 00:14:16;;;;;;;7.33;5.20;;;20.40;91.60;;;;;;5057855;28;20484;-86
2022/06/16 00:16:43;;;;;;;5.80;4.50;;;20.30;91.60;;;;;;5061052;28;20800;-87
2022/06/16 00:19:10;;;;;;;8.17;4.73;;;20.30;91.90;;;;;;5063492;28;20457;-86
2022/06/16 00:21:37;;;;;;;7.03;5.63;;;20.30;91.90;;;;;;5063772;28;20492;-86
2022/06/16 00:24:04;;;;;;;9.27;5.03;;;20.20;92.00;;;;;;5067207;28;20452;-86
2022/06/16 00:26:31;;;;;;;6.00;4.80;;;20.10;92.30;;;;;;5070604;28;20440;-86
2022/06/16 00:28:58;;;;;;;7.07;5.00;;;20.10;92.20;;;;;;5060268;28;20452;-86
2022/06/16 00:31:26;;;;;;;7.07;5.33;;;20.10;92.30;;;;;;5060350;28;20542;-87
2022/06/16 00:33:53;;;;;;;7.60;4.87;;;20.10;92.20;;;;;;5061463;28;20829;-87
2022/06/16 00:36:20;;;;;;;7.60;5.03;;;20.00;92.20;;;;;;5059741;28;20445;-86
2022/06/16 00:38:47;;;;;;;6.80;4.70;;;20.00;92.20;;;;;;5062733;28;20533;-87
2022/06/16 00:41:14;;;;;;;8.73;5.10;;;20.00;92.20;;;;;;5062573;28;20473;-86
2022/06/16 00:43:42;;;;;;;5.47;4.47;;;19.90;92.10;;;;;;5073042;28;20468;-88
2022/06/16 00:46:13;;;;;;;6.80;4.87;;;19.90;92.10;;;;;;5069051;28;20544;-87
2022/06/16 00:48:45;;;;;;;7.47;4.87;;;19.90;92.20;;;;;;5068605;28;20437;-87
2022/06/16 00:51:16;;;;;;;5.50;4.50;;;20.00;92.00;;;;;;5064536;28;20468;-87
2022/06/16 00:53:47;;;;;;;8.57;4.90;;;20.10;92.00;;;;;;5077042;28;20410;-87
2022/06/16 00:56:17;;;;;;;6.50;4.60;;;20.00;92.00;;;;;;5073477;28;20464;-87
2022/06/16 00:58:47;;;;;;;6.00;3.93;;;19.90;92.00;;;;;;5069246;28;20446;-86
2022/06/16 01:01:15;;;;;;;6.90;4.93;;;19.90;92.10;;;;;;5078461;28;20469;-85
2022/06/16 01:06:32;;;;;;;7.17;4.37;;;19.70;92.20;;;;;;5063857;28;20425;-86
2022/06/16 01:09:04;;;;;;;11.70;4.57;;;19.60;92.60;;;;;;5066083;28;20436;-86
2022/06/16 01:14:53;;;;;;;7.03;4.80;;;19.50;93.10;;;;;;5062827;28;20483;-87
2022/06/16 01:17:28;;;;;;;8.47;4.63;;;19.60;93.30;;;;;;5062121;28;20428;-87
2022/06/16 01:20:08;;;;;;;5.77;4.67;;;19.60;93.30;;;;;;5061477;28;20437;-87
2022/06/16 01:22:50;;;;;;;5.57;4.10;;;19.60;93.10;;;;;;5084522;22;20622;-87
2022/06/16 01:25:30;;;;;;;6.60;4.80;;;19.50;93.10;;;;;;5061236;28;20532;-88
2022/06/16 01:28:19;;;;;;;7.20;4.60;;;19.50;93.00;;;;;;5068882;28;20448;-88
2022/06/16 01:30:56;;;;;;;7.00;4.87;;;19.40;92.90;;;;;;5068144;28;20516;-87
2022/06/16 01:33:30;;;;;;;7.50;4.80;;;19.50;93.10;;;;;;5062544;28;20833;-86
2022/06/16 01:36:06;;;;;;;7.07;4.80;;;19.50;93.30;;;;;;5060131;28;20429;-88
2022/06/16 01:38:41;;;;;;;7.50;4.43;;;19.60;93.30;;;;;;5059447;28;20425;-87
2022/06/16 01:41:16;;;;;;;9.50;4.80;;;19.50;93.50;;;;;;5058895;28;20436;-87
2022/06/16 01:43:49;;;;;;;6.13;4.80;;;19.40;93.50;;;;;;5068479;28;20562;-87
2022/06/16 01:46:22;;;;;;;5.13;4.20;;;19.30;93.50;;;;;;5070613;28;20483;-88
2022/06/16 01:48:53;;;;;;;5.97;4.53;;;19.20;93.70;;;;;;5058500;28;20480;-87
2022/06/16 01:51:24;;;;;;;6.67;4.47;;;19.20;93.90;;;;;;5057534;28;20507;-87
2022/06/16 01:53:56;;;;;;;6.00;3.90;;;19.20;93.90;;;;;;5057078;28;20989;-87
2022/06/16 01:56:28;;;;;;;7.60;4.43;;;19.40;93.50;;;;;;5057118;28;20426;-87
2022/06/16 01:59:00;;;;;;;6.50;4.73;;;19.40;93.50;;;;;;5057231;28;20959;-87
2022/06/16 02:01:31;;;;;;;5.80;4.80;;;19.30;93.90;;;;;;5058685;28;20490;-87
2022/06/16 02:04:06;;;;;;;6.93;4.50;;;19.20;94.30;;;;;;5058024;28;20509;-86
2022/06/16 02:06:37;;;;;;;10.40;4.40;;;19.20;94.40;;;;;;5057784;28;20542;-87
2022/06/16 02:09:13;;;;;;;7.27;4.07;;;19.30;94.20;;;;;;5056401;28;20429;-87
2022/06/16 02:11:42;;;;;;;6.77;4.60;;;19.30;94.20;;;;;;5057325;28;20455;-87
2022/06/16 02:14:15;;;;;;;6.57;5.03;;;19.30;94.30;;;;;;5056509;28;20548;-87
2022/06/16 02:16:45;;;;;;;8.60;4.80;;;19.20;94.50;;;;;;5058695;28;20421;-86
2022/06/16 02:19:14;;;;;;;7.63;4.40;;;19.30;94.60;;;;;;5056314;28;20445;-86
2022/06/16 02:21:45;;;;;;;7.43;4.20;;;19.20;94.60;;;;;;5058080;28;20484;-87
2022/06/16 02:24:15;;;;;;;5.60;4.00;;;19.20;94.60;;;;;;5063933;28;20512;-87
2022/06/16 02:26:43;;;;;;;5.40;4.10;;;19.20;94.70;;;;;;5063596;28;20473;-87
2022/06/16 02:29:29;;;;;;;6.83;4.47;;;19.10;95.30;;;;;;5058781;28;20877;-88
2022/06/16 02:32:08;;;;;;;9.23;4.13;;;19.00;95.40;;;;;;5058193;28;20801;-88
2022/06/16 02:34:45;;;;;;;5.70;4.23;;;18.90;95.40;;;;;;5056734;28;20437;-88
2022/06/16 02:37:27;;;;;;;5.97;4.73;;;18.90;95.60;;;;;;5056448;28;20508;-87
2022/06/16 02:40:07;;;;;;;7.43;4.10;;;18.80;96.00;;;;;;5058722;28;20497;-88
2022/06/16 02:42:41;;;;;;;6.17;4.00;;;18.80;96.10;;;;;;5056931;28;20527;-88
2022/06/16 02:45:16;;;;;;;6.07;4.47;;;18.80;96.10;;;;;;5065687;28;20480;-88
2022/06/16 02:47:57;;;;;;;5.10;3.77;;;18.80;96.30;;;;;;5074626;28;20445;-88
2022/06/16 02:50:32;;;;;;;6.80;4.30;;;18.90;96.50;;;;;;5073877;28;20444;-87
2022/06/16 02:53:08;;;;;;;5.70;4.17;;;18.80;96.40;;;;;;5058501;28;20551;-87
2022/06/16 02:55:41;;;;;;;8.00;4.40;;;18.90;96.40;;;;;;5057159;28;20480;-87
2022/06/16 02:58:10;;;;;;;5.70;4.07;;;18.90;96.60;;;;;;5056523;28;20525;-87
2022/06/16 03:00:41;;;;;;;5.07;3.93;;;18.80;96.80;;;;;;5057893;28;20489;-87
2022/06/16 03:03:25;;;;;;;5.10;4.20;;;18.80;96.80;;;;;;5064186;28;20496;-87
2022/06/16 03:05:53;;;;;;;7.37;4.20;;;18.80;96.90;;;;;;5064957;28;20477;-87
2022/06/16 03:08:22;;;;;;;6.90;4.70;;;18.80;96.90;;;;;;5074648;28;20539;-87
2022/06/16 03:10:53;;;;;;;8.70;4.80;;;18.70;97.10;;;;;;5072308;28;20441;-87
2022/06/16 03:13:21;;;;;;;6.70;4.50;;;18.70;97.30;;;;;;5062227;28;20522;-87
2022/06/16 03:15:50;;;;;;;5.90;4.20;;;18.60;97.60;;;;;;5059597;28;20480;-87
2022/06/16 03:18:17;;;;;;;5.77;4.23;;;18.60;97.70;;;;;;5056675;28;20540;-88
2022/06/16 03:20:45;;;;;;;6.87;4.50;;;18.60;97.60;;;;;;5056016;28;20445;-87
2022/06/16 03:23:12;;;;;;;5.80;3.93;;;18.60;97.50;;;;;;5055382;28;20487;-88
2022/06/16 03:25:40;;;;;;;7.20;4.70;;;18.60;97.60;;;;;;5055939;28;20587;-88
2022/06/16 03:28:08;;;;;;;8.67;4.00;;;18.60;97.60;;;;;;5056514;28;20980;-87
2022/06/16 03:30:35;;;;;;;6.53;4.20;;;18.70;97.60;;;;;;5058703;28;20457;-87
2022/06/16 03:33:02;;;;;;;6.10;4.50;;;18.70;97.60;;;;;;5056708;28;20472;-87
2022/06/16 03:35:30;;;;;;;6.47;5.10;;;18.70;97.70;;;;;;5057591;28;20472;-88
2022/06/16 03:37:59;;;;;;;7.53;4.93;;;18.80;97.80;;;;;;5055178;28;20460;-87
2022/06/16 03:40:26;;;;;;;6.70;4.80;;;18.90;97.70;;;;;;5055117;28;20541;-88
2022/06/16 03:42:53;;;;;;;6.87;4.67;;;18.70;97.70;;;;;;5055569;28;20568;-88
2022/06/16 03:45:20;;;;;;;6.43;3.97;;;18.70;97.80;;;;;;5055005;28;20931;-87
2022/06/16 03:47:47;;;;;;;5.67;4.47;;;18.60;98.10;;;;;;5054807;28;20942;-88
2022/06/16 03:50:15;;;;;;;6.23;5.20;;;18.60;98.40;;;;;;5056068;28;20460;-87
2022/06/16 03:52:42;;;;;;;6.60;4.37;;;18.70;98.40;;;;;;5058737;28;20977;-87
2022/06/16 03:55:11;;;;;;;8.47;4.57;;;18.70;98.70;;;;;;5058964;28;20442;-87
2022/06/16 03:57:38;;;;;;;7.43;4.57;;;18.80;98.30;;;;;;5058936;28;20536;-87
2022/06/16 04:00:07;;;;;;;6.40;4.50;;;18.90;98.10;;;;;;5061612;28;20448;-88
2022/06/16 04:02:41;;;;;;;7.50;4.60;;;18.80;98.40;;;;;;5082014;28;20460;-83
2022/06/16 04:05:09;;;;;;;12.47;4.20;;;19.00;98.30;;;;;;5082151;28;20448;-83
2022/06/16 04:07:36;;;;;;;5.47;4.00;;;19.00;98.20;;;;;;5081174;28;20536;-87
2022/06/16 04:10:03;;;;;;;7.23;4.70;;;19.10;97.80;;;;;;5079611;28;20414;-88
2022/06/16 04:12:32;;;;;;;7.70;4.77;;;19.20;97.60;;;;;;5073476;28;20487;-87
2022/06/16 04:14:59;;;;;;;8.07;4.87;;;19.30;97.80;;;;;;5069240;28;20536;-87
2022/06/16 04:17:26;;;;;;;6.20;4.60;;;19.40;97.50;;;;;;5062059;28;20451;-87
2022/06/16 04:22:37;;;;;;;6.40;4.80;;;19.60;97.20;;;;;;5072594;28;20479;-86
2022/06/16 04:25:04;;;;;;;8.57;5.13;;;19.60;97.00;;;;;;5065088;28;20873;-86
2022/06/16 04:27:33;;;;;;;5.90;4.80;;;19.70;97.00;;;;;;5066261;28;20539;-86
2022/06/16 04:30:00;;;;;;;5.90;4.83;;;19.70;97.10;;;;;;5067869;28;20453;-85
2022/06/16 04:32:27;;;;;;;6.97;5.07;;;19.80;96.80;;;;;;5067065;28;20488;-86
2022/06/16 04:34:53;;;;;;;6.83;4.20;;;19.90;96.60;;;;;;5061583;28;20519;-85
2022/06/16 04:37:20;;;;;;;6.07;4.60;;;20.00;96.50;;;;;;5060394;28;20445;-87
2022/06/16 04:39:47;;;;;;;5.93;4.17;;;20.00;96.30;;;;;;5061144;28;20453;-86
2022/06/16 04:42:14;;;;;;;7.50;4.43;;;20.10;96.30;;;;;;5060716;28;20520;-87
2022/06/16 04:44:43;;;;;;;7.10;4.67;;;20.20;96.10;;;;;;5061419;28;20532;-86
2022/06/16 04:47:10;;;;;;;5.50;4.40;;;20.30;96.20;;;;;;5061721;28;20542;-87
2022/06/16 04:49:38;;;;;;;5.90;4.27;;;20.30;96.20;;;;;;5060687;28;20480;-86
2022/06/16 04:52:06;;;;;;;9.63;4.30;;;20.40;96.20;;;;;;5060815;28;20883;-86
2022/06/16 04:54:33;;;;;;;10.53;5.00;;;20.40;96.00;;;;;;5061766;28;20942;-87
2022/06/16 04:57:01;;;;;;;5.00;4.00;;;20.40;96.00;;;;;;5060779;28;20460;-86
2022/06/16 04:59:27;;;;;;;12.73;5.37;;;20.50;96.00;;;;;;5063877;28;20445;-86
2022/06/16 05:01:56;;;;;;;7.23;4.37;;;20.60;95.80;;;;;;5065945;28;20459;-86
2022/06/16 05:04:22;;;;;;;8.03;5.47;;;20.60;95.70;;;;;;5060362;28;21021;-86
2022/06/16 05:06:49;;;;;;;5.90;4.93;;;20.60;95.80;;;;;;5060790;28;20491;-86
2022/06/16 05:09:16;;;;;;;7.27;5.30;;;20.50;95.80;;;;;;5059702;28;20547;-86
2022/06/16 05:11:51;;;;;;;6.50;4.33;;;20.50;95.90;;;;;;5060335;28;20472;-88
2022/06/16 05:14:18;;;;;;;7.03;4.87;;;20.50;96.10;;;;;;5061236;28;20540;-87
2022/06/16 05:16:45;;;;;;;6.83;4.80;;;20.70;95.50;;;;;;5060329;28;20449;-86
2022/06/16 05:19:13;;;;;;;6.97;5.07;;;20.70;95.50;;;;;;5060770;28;20540;-86
2022/06/16 05:21:40;;;;;;;6.60;4.70;;;20.70;95.90;;;;;;5061984;28;20449;-86
2022/06/16 05:24:07;;;;;;;6.60;4.77;;;20.60;96.10;;;;;;5068915;28;20469;-86
2022/06/16 05:26:34;;;;;;;8.00;5.03;;;20.60;96.20;;;;;;5078877;28;20555;-86
2022/06/16 05:29:00;;;;;;;6.07;4.93;;;20.70;96.10;;;;;;5065386;28;20536;-87
2022/06/16 05:31:27;;;;;;;7.97;5.40;;;20.90;96.00;;;;;;5063680;28;20535;-87
2022/06/16 05:33:54;;;;;;;9.03;5.93;;;21.10;96.20;;;;;;5063535;28;20453;-86
2022/06/16 05:36:23;;;;;;;9.53;6.60;;;21.20;96.30;;;;;;5069791;28;20884;-86
2022/06/16 05:38:50;;;;;;;14.23;6.70;;;21.30;97.00;;;;;;5066845;28;20529;-86
2022/06/16 05:41:18;;;;;;;8.87;6.47;;;21.20;97.20;;;;;;5065537;28;20461;-86
2022/06/16 05:43:45;;;;;;;8.17;5.87;;;21.30;97.30;;;;;;5061007;28;20887;-86
2022/06/16 05:46:17;;;;;;;11.70;7.40;;;21.30;97.20;;;;;;5059638;28;20548;-86
2022/06/16 05:48:44;;;;;;;8.20;6.63;;;21.30;97.20;;;;;;5059018;28;20520;-86
2022/06/16 05:51:13;;;;;;;7.63;5.93;;;21.50;96.90;;;;;;5059871;28;20452;-86
2022/06/16 05:53:42;;;;;;;7.57;5.20;;;21.60;96.60;;;;;;5058198;28;20910;-86
2022/06/16 05:56:09;;;;;;;7.13;5.70;;;21.60;96.00;;;;;;5063664;28;20465;-87
2022/06/16 05:58:36;;;;;;;9.43;5.80;;;21.60;95.30;;;;;;5078160;28;20472;-86
2022/06/16 06:01:03;;;;;;;9.27;6.37;;;21.70;95.00;;;;;;5076054;28;20451;-86
2022/06/16 06:03:30;;;;;;;9.47;5.97;;;21.80;94.80;;;;;;5069958;28;20537;-87
2022/06/16 06:05:59;;;;;;;8.20;6.00;;;21.80;94.50;;;;;;5059710;28;20476;-87
2022/06/16 06:16:44;;;;;;;6.50;5.67;;;22.30;93.70;;;;;;5064000;28;20409;-86
2022/06/16 06:19:26;;;;;;;6.90;5.37;;;22.50;93.60;;;;;;5060730;28;20453;-87
2022/06/16 06:22:02;;;;;;;9.67;5.63;;;22.50;93.50;;;;;;5056825;28;20462;-86
2022/06/16 06:24:33;;;;;;;10.13;6.90;;;22.50;93.50;;;;;;5056097;28;20461;-86
2022/06/16 06:27:04;;;;;;;10.27;7.03;;;22.50;93.90;;;;;;5055418;28;20461;-87
2022/06/16 06:29:30;;;;;;;6.50;5.80;;;22.60;93.30;;;;;;5055906;28;20550;-87
2022/06/16 06:31:58;;;;;;;7.60;6.07;;;22.80;92.90;;;;;;5057313;28;20433;-86
2022/06/16 06:34:25;;;;;;;9.07;6.00;;;23.00;92.60;;;;;;5057096;28;20552;-86
2022/06/16 06:36:52;;;;;;;8.10;6.40;;;23.10;92.20;;;;;;5057094;28;20549;-86
2022/06/16 06:39:19;;;;;;;9.80;6.00;;;23.00;91.80;;;;;;5069069;28;20758;-86
2022/06/16 06:41:46;;;;;;;9.33;6.00;;;23.00;91.60;;;;;;5077339;28;20441;-85
2022/06/16 06:44:14;;;;;;;8.40;6.47;;;23.00;91.30;;;;;;5076980;28;20496;-87
2022/06/16 06:46:41;;;;;;;8.60;5.70;;;23.00;91.10;;;;;;5074641;28;20544;-86
2022/06/16 06:49:09;;;;;;;8.93;6.00;;;23.20;90.80;;;;;;5059712;28;20442;-87
2022/06/16 06:51:36;;;;;;;7.90;6.27;;;23.30;90.30;;;;;;5060344;28;20456;-87
2022/06/16 06:54:03;;;;;;;7.73;6.07;;;23.50;89.40;;;;;;5059005;28;20549;-87
2022/06/16 06:56:31;;;;;;;7.67;5.60;;;23.50;88.70;;;;;;5058759;28;20445;-87
2022/06/16 06:59:01;;;;;;;10.53;5.70;;;23.60;89.00;;;;;;5062639;28;20543;-87
2022/06/16 07:01:29;;;;;;;6.50;5.33;;;23.70;88.20;;;;;;5074259;28;20449;-87
2022/06/16 07:03:56;;;;;;;8.93;5.57;;;23.70;87.80;;;;;;5070139;28;20882;-85
2022/06/16 07:06:23;;;;;;;7.27;5.77;;;23.60;88.50;;;;;;5063814;28;20487;-87
2022/06/16 07:08:50;;;;;;;6.70;5.77;;;23.70;88.70;;;;;;5071348;28;20461;-85
2022/06/16 07:11:17;;;;;;;7.03;6.30;;;23.80;88.50;;;;;;5066932;28;20869;-86
2022/06/16 07:13:44;;;;;;;7.23;5.97;;;23.90;88.10;;;;;;5057496;28;20509;-85
2022/06/16 07:16:12;;;;;;;7.57;6.17;;;24.00;87.40;;;;;;5057546;28;20470;-85
2022/06/16 07:18:40;;;;;;;7.80;5.93;;;24.10;86.40;;;;;;5063465;28;20457;-87
2022/06/16 07:21:07;;;;;;;9.20;6.20;;;24.10;86.10;;;;;;5065948;28;20449;-87
2022/06/16 07:23:34;;;;;;;7.23;5.90;;;24.10;86.40;;;;;;5060496;28;20481;-87
2022/06/16 07:26:01;;;;;;;8.00;6.20;;;24.10;86.40;;;;;;5083827;22;20524;-83
2022/06/16 07:28:28;;;;;;;8.70;6.27;;;24.20;88.50;;;;;;5076256;28;20433;-85
2022/06/16 07:30:55;;;;;;;7.60;6.30;;;24.10;88.70;;;;;;5077937;28;20457;-85
2022/06/16 07:33:23;;;;;;;7.43;6.50;;;24.30;89.00;;;;;;5077245;28;20469;-84
2022/06/16 07:35:55;;;;;;;8.70;7.03;;;24.40;89.00;;;;;;5070895;28;20473;-84
2022/06/16 07:38:22;;;;;;;8.17;6.27;;;24.40;89.60;;;;;;5073789;28;20455;-84
2022/06/16 07:40:49;;;;;;;7.43;6.60;;;24.30;89.90;;;;;;5076797;28;20456;-83
2022/06/16 07:43:16;;;;;;;9.03;6.37;;;24.40;90.00;;;;;;5070189;28;20464;-84
2022/06/16 07:45:45;;;;;;;7.77;6.70;;;24.50;89.50;;;;;;5069234;28;20477;-85
2022/06/16 07:48:12;;;;;;;7.53;6.10;;;24.60;89.40;;;;;;5067643;28;20489;-84
2022/06/16 07:50:39;;;;;;;7.07;6.20;;;24.60;88.50;;;;;;5069444;28;20452;-85
2022/06/16 07:53:08;;;;;;;7.40;5.60;;;24.60;88.50;;;;;;5074108;28;20460;-85
2022/06/16 07:55:35;;;;;;;7.97;5.73;;;24.80;87.10;;;;;;5076892;28;20469;-87
2022/06/16 07:58:02;;;;;;;8.37;5.70;;;24.80;87.60;;;;;;5077639;28;20437;-88
2022/06/16 08:00:34;;;;;;;7.83;6.40;;;24.80;88.00;;;;;;5077326;28;20453;-85
2022/06/16 08:03:01;;;;;;;7.47;6.43;;;24.80;88.60;;;;;;5065129;28;20433;-86
2022/06/16 08:05:28;;;;;;;7.20;5.70;;;24.70;90.10;;;;;;5065010;28;20473;-86
2022/06/16 08:07:55;;;;;;;7.60;6.53;;;24.90;90.40;;;;;;5064742;28;20485;-86
2022/06/16 08:10:33;;;;;;;9.30;6.50;;;24.90;90.50;;;;;;5064353;28;20488;-86
2022/06/16 08:13:00;;;;;;;8.93;6.67;;;24.90;91.20;;;;;;5065362;28;20453;-86
2022/06/16 08:15:27;;;;;;;9.30;7.00;;;24.90;91.40;;;;;;5070304;28;20472;-86
2022/06/16 08:17:56;;;;;;;8.43;6.80;;;25.00;91.60;;;;;;5066660;28;20445;-86
2022/06/16 08:20:23;;;;;;;8.40;6.70;;;25.20;91.40;;;;;;5063527;28;20453;-86
2022/06/16 08:22:50;;;;;;;8.53;7.00;;;25.30;91.10;;;;;;5063921;28;20505;-86
2022/06/16 08:25:19;;;;;;;7.67;6.93;;;25.40;89.80;;;;;;5063394;28;20476;-85
2022/06/16 08:27:49;;;;;;;7.70;6.90;;;25.50;90.30;;;;;;5063229;28;20485;-86
2022/06/16 08:30:18;;;;;;;7.73;6.80;;;25.50;89.90;;;;;;5061865;28;20547;-87
2022/06/16 08:32:46;;;;;;;8.70;6.70;;;25.60;87.90;;;;;;5065193;28;20477;-86
2022/06/16 08:35:13;;;;;;;9.50;6.60;;;25.80;87.50;;;;;;5062452;28;20530;-86
2022/06/16 08:37:40;;;;;;;14.40;7.10;;;25.90;85.60;;;;;;5068175;28;20465;-86
2022/06/16 08:40:09;;;;;;;8.97;6.40;;;26.10;84.40;;;;;;5077654;28;20441;-85
2022/06/16 08:42:42;;;;;;;11.20;6.60;;;26.20;84.20;;;;;;5079330;28;20429;-85
2022/06/16 08:45:28;;;;;;;7.93;5.70;;;26.20;82.70;;;;;;5076044;28;20537;-86
2022/06/16 08:48:11;;;;;;;8.40;6.07;;;26.10;81.60;;;;;;5066873;28;20560;-85
2022/06/16 08:50:45;;;;;;;10.47;6.30;;;26.10;79.30;;;;;;5066990;28;20473;-86
2022/06/16 08:53:30;;;;;;;9.10;5.93;;;25.80;78.90;;;;;;5065913;28;20453;-86
2022/06/16 08:56:05;;;;;;;7.80;6.30;;;25.70;79.20;;;;;;5065411;28;20493;-86
2022/06/16 08:58:39;;;;;;;6.93;5.90;;;25.70;79.30;;;;;;5065633;28;20463;-87
2022/06/16 09:01:13;;;;;;;8.60;6.30;;;25.70;78.90;;;;;;5066162;28;20414;-86
2022/06/16 09:03:47;;;;;;;10.77;6.23;;;25.80;79.00;;;;;;5074047;28;20421;-86
2022/06/16 09:06:29;;;;;;;7.90;6.30;;;25.90;79.10;;;;;;5071556;28;20453;-86
2022/06/16 09:09:07;;;;;;;10.40;5.87;;;26.10;79.10;;;;;;5068048;28;20422;-86
2022/06/16 09:11:45;;;;;;;9.40;6.10;;;26.10;78.40;;;;;;5078955;28;20410;-85
2022/06/16 09:17:43;;;;;;;7.23;5.77;;;26.10;77.40;;;;;;5064798;28;20420;-86
2022/06/16 09:20:16;;;;;;;7.57;4.60;;;26.20;77.00;;;;;;5065138;28;20530;-86
2022/06/16 09:22:59;;;;;;;6.37;5.67;;;26.10;74.60;;;;;;5070106;28;20441;-86
2022/06/16 09:25:50;;;;;;;7.20;5.80;;;26.10;74.80;;;;;;5062720;28;20826;-86
2022/06/16 09:28:19;;;;;;;6.77;5.67;;;26.20;74.70;;;;;;5045339;28;20523;-86
2022/06/16 09:30:51;;;;;;;7.00;6.30;;;26.40;75.00;;;;;;5066204;28;20936;-86
2022/06/16 09:33:21;;;;;;;8.17;6.27;;;26.30;78.20;;;;;;5065955;28;20890;-86
2022/06/16 09:35:53;;;;;;;8.63;6.60;;;26.10;79.30;;;;;;5063590;28;20491;-86
2022/06/16 09:38:25;;;;;;;7.53;5.87;;;26.10;80.80;;;;;;5063142;28;20436;-86
2022/06/16 09:40:58;;;;;;;7.87;6.30;;;26.20;80.50;;;;;;5071581;28;20397;-88
2022/06/16 09:43:32;;;;;;;7.43;6.03;;;26.10;80.30;;;;;;5079794;28;20501;-90
2022/06/16 09:46:03;;;;;;;8.10;5.00;;;26.30;80.30;;;;;;5079940;28;20484;-88
2022/06/16 09:48:36;;;;;;;8.37;6.10;;;26.10;80.40;;;;;;5078265;28;20508;-87
2022/06/16 09:51:11;;;;;;;11.30;6.50;;;26.00;81.50;;;;;;5078985;28;20441;-87
2022/06/16 09:53:42;;;;;;;10.40;6.00;;;25.90;81.90;;;;;;5076036;28;20610;-87
2022/06/16 09:56:14;;;;;;;7.93;6.20;;;26.00;81.80;;;;;;5073712;28;20453;-87
2022/06/16 09:58:48;;;;;;;6.63;5.87;;;26.20;82.00;;;;;;5065196;28;20516;-88
2022/06/16 10:01:23;;;;;;;6.80;6.07;;;26.20;81.50;;;;;;5066072;28;20486;-87
2022/06/16 10:04:00;;;;;;;7.93;6.47;;;26.20;80.90;;;;;;5076747;28;20467;-87
2022/06/16 10:06:35;;;;;;;9.20;5.93;;;26.30;80.10;;;;;;5077547;28;20425;-87
2022/06/16 10:09:12;;;;;;;7.37;6.60;;;26.20;80.90;;;;;;5070795;28;20468;-86
2022/06/16 10:11:50;;;;;;;7.10;6.30;;;25.90;81.00;;;;;;5068154;28;20417;-86
2022/06/16 10:14:22;;;;;;;9.17;6.27;;;25.90;82.20;;;;;;5063118;28;20476;-86
2022/06/16 10:16:55;;;;;;;7.20;6.40;;;26.00;81.90;;;;;;5062617;28;20501;-86
2022/06/16 10:19:26;;;;;;;10.30;6.23;;;26.00;83.00;;;;;;5062617;28;20905;-86
2022/06/16 10:21:53;;;;;;;9.30;6.47;;;26.10;83.60;;;;;;5061211;28;20497;-87
2022/06/16 10:24:24;;;;;;;7.10;5.97;;;26.20;83.40;;;;;;5062100;28;20925;-86
2022/06/16 10:26:51;;;;;;;9.23;6.33;;;26.30;82.90;;;;;;5068316;28;20547;-85
2022/06/16 10:29:24;;;;;;;8.00;5.83;;;26.40;82.20;;;;;;5058073;28;20588;-85
2022/06/16 10:31:54;;;;;;;6.73;5.87;;;26.50;82.60;;;;;;5056816;28;20426;-87
2022/06/16 10:34:30;;;;;;;9.30;6.27;;;26.40;83.30;;;;;;5056261;28;20469;-86
2022/06/16 10:37:14;;;;;;;9.80;5.80;;;26.60;82.70;;;;;;5056699;28;20512;-86
2022/06/16 10:39:49;;;;;;;8.20;5.43;;;26.60;82.40;;;;;;5071600;28;20457;-87
2022/06/16 10:42:21;;;;;;;8.20;6.37;;;26.40;82.10;;;;;;5067908;28;20418;-86
2022/06/16 10:44:59;;;;;;;7.83;5.13;;;26.30;81.40;;;;;;5072576;28;20493;-85
2022/06/16 10:47:33;;;;;;;8.03;6.00;;;26.40;81.80;;;;;;5066377;28;20472;-86
2022/06/16 10:50:02;;;;;;;6.87;6.00;;;26.60;82.70;;;;;;5073738;28;20456;-85
2022/06/16 10:52:33;;;;;;;9.30;6.63;;;26.70;81.60;;;;;;5075661;28;20441;-83
2022/06/16 10:55:19;;;;;;;7.00;5.67;;;26.90;81.20;;;;;;5067177;28;20473;-86
2022/06/16 10:57:48;;;;;;;6.87;6.17;;;27.10;80.80;;;;;;5064343;28;20456;-86
2022/06/16 11:00:18;;;;;;;8.40;6.53;;;27.20;80.00;;;;;;5064527;28;20464;-86
2022/06/16 11:02:59;;;;;;;8.40;6.47;;;27.30;80.70;;;;;;5064903;28;20477;-85
2022/06/16 11:05:30;;;;;;;8.43;5.80;;;27.40;79.60;;;;;;5063912;28;20469;-85
2022/06/16 11:08:10;;;;;;;7.10;5.60;;;27.40;78.40;;;;;;5062566;28;20477;-85
2022/06/16 11:10:40;;;;;;;8.57;6.10;;;27.30;74.90;;;;;;5062275;28;20523;-85
2022/06/16 11:13:14;;;;;;;6.80;5.63;;;27.30;76.20;;;;;;5063213;28;20536;-85
2022/06/16 11:15:43;;;;;;;10.13;6.43;;;27.30;76.70;;;;;;5063111;28;21024;-85
2022/06/16 11:18:16;;;;;;;9.33;6.70;;;26.90;77.60;;;;;;5062162;28;20473;-86
2022/06/16 11:20:48;;;;;;;7.43;6.63;;;27.10;77.40;;;;;;5063590;28;20514;-85
2022/06/16 11:23:31;;;;;;;7.00;5.87;;;27.00;76.70;;;;;;5061960;28;20445;-84
2022/06/16 11:26:18;;;;;;;7.03;5.80;;;26.90;77.50;;;;;;5064487;28;20497;-84
2022/06/16 11:28:48;;;;;;;7.10;5.93;;;27.00;77.90;;;;;;5068395;28;20472;-85
2022/06/16 11:31:17;;;;;;;8.80;5.73;;;27.30;77.20;;;;;;5071885;28;20945;-85
2022/06/16 11:36:55;;;;;;;7.30;6.20;;;27.30;75.90;;;;;;5069410;28;20424;-83
2022/06/16 11:39:29;;;;;;;9.53;6.50;;;27.30;75.70;;;;;;5076311;28;20456;-82
2022/06/16 11:41:59;;;;;;;8.13;6.37;;;27.10;77.30;;;;;;5077825;28;20425;-84
2022/06/16 11:44:48;;;;;;;9.70;5.43;;;27.20;76.90;;;;;;5072495;28;20472;-83
2022/06/16 11:47:32;;;;;;;8.40;6.40;;;27.30;76.40;;;;;;5074655;28;20435;-85
2022/06/16 11:50:07;;;;;;;11.23;5.77;;;27.30;75.80;;;;;;5076923;28;20429;-82
2022/06/16 11:52:47;;;;;;;7.50;6.37;;;27.30;75.00;;;;;;5072595;28;20768;-83
2022/06/16 11:55:26;;;;;;;6.70;6.00;;;27.30;74.70;;;;;;5067423;28;20564;-83
2022/06/16 11:58:03;;;;;;;7.83;5.10;;;27.30;72.60;;;;;;5066650;28;20452;-83
2022/06/16 12:00:36;;;;;;;14.00;6.47;;;27.40;72.60;;;;;;5067512;28;20433;-83
2022/06/16 12:03:38;;;;;;;9.70;6.10;;;27.40;73.30;;;;;;5066449;28;20433;-85
2022/06/16 12:06:33;;;;;;;8.53;5.10;;;27.60;72.00;;;;;;5014186;28;20965;-86
2022/06/16 12:09:16;;;;;;;7.20;5.57;;;27.50;70.30;;;;;;5058264;28;20512;-86
2022/06/16 12:11:51;;;;;;;8.27;5.83;;;27.30;72.40;;;;;;5062484;28;20498;-86
2022/06/16 12:14:24;;;;;;;7.17;5.67;;;27.50;72.40;;;;;;5066801;28;20487;-87
2022/06/16 12:17:03;;;;;;;7.30;5.47;;;27.60;70.00;;;;;;5069274;28;20924;-86
2022/06/16 12:19:41;;;;;;;7.53;5.37;;;27.80;69.30;;;;;;5075570;28;20443;-85
2022/06/16 12:22:16;;;;;;;6.03;4.73;;;27.80;67.00;;;;;;5067417;28;20464;-87
2022/06/16 12:24:50;;;;;;;5.93;5.03;;;27.70;66.80;;;;;;5065458;28;20476;-86
2022/06/16 12:27:24;;;;;;;9.30;6.60;;;27.60;67.60;;;;;;5066316;28;20895;-86
2022/06/16 12:29:58;;;;;;;10.20;5.50;;;27.70;68.30;;;;;;5067363;28;20491;-86
2022/06/16 12:32:39;;;;;;;7.00;5.03;;;27.80;69.40;;;;;;5070107;28;20559;-86
2022/06/16 12:35:15;;;;;;;9.33;5.70;;;27.80;69.70;;;;;;5068234;28;20497;-87
2022/06/16 12:37:48;;;;;;;7.50;5.80;;;27.90;69.40;;;;;;5068027;28;20853;-85
2022/06/16 12:40:21;;;;;;;7.37;5.10;;;27.90;67.20;;;;;;5073521;28;20430;-85
2022/06/16 12:42:53;;;;;;;7.77;5.73;;;27.90;67.20;;;;;;5072357;28;20433;-86
2022/06/16 12:45:27;;;;;;;6.57;5.87;;;27.90;66.20;;;;;;5074837;28;20465;-84
2022/06/16 12:47:58;;;;;;;6.40;5.20;;;27.80;64.00;;;;;;5080855;28;20437;-86
2022/06/16 12:50:30;;;;;;;6.30;4.47;;;27.70;65.00;;;;;;5068070;28;20433;-85
2022/06/16 12:53:01;;;;;;;7.93;5.40;;;27.80;63.90;;;;;;5067494;28;20420;-86
2022/06/16 12:55:35;;;;;;;11.03;4.80;;;27.70;64.80;;;;;;5068960;28;20499;-85
2022/06/16 12:58:08;;;;;;;5.40;4.60;;;27.70;63.00;;;;;;5079393;28;20452;-84
2022/06/16 13:00:39;;;;;;;9.77;5.73;;;27.80;63.70;;;;;;5076941;28;20789;-84
2022/06/16 13:03:09;;;;;;;7.40;5.27;;;28.00;63.70;;;;;;5072994;28;20440;-84
2022/06/16 13:05:37;;;;;;;9.03;5.30;;;28.20;64.00;;;;;;5064596;28;20964;-85
2022/06/16 13:08:08;;;;;;;5.83;4.80;;;28.30;64.10;;;;;;5062679;28;20583;-85
2022/06/16 13:10:43;;;;;;;6.00;5.10;;;28.20;60.60;;;;;;5074943;28;20455;-85
2022/06/16 13:13:18;;;;;;;6.23;4.73;;;28.20;60.90;;;;;;5071380;28;20445;-85
2022/06/16 13:15:53;;;;;;;6.60;5.10;;;28.30;57.20;;;;;;5069012;28;20540;-85
2022/06/16 13:18:25;;;;;;;7.77;5.30;;;28.00;58.60;;;;;;5070687;28;20471;-86
2022/06/16 13:20:55;;;;;;;6.00;4.67;;;28.10;59.80;;;;;;5070917;28;20505;-86
2022/06/16 13:23:31;;;;;;;7.80;5.20;;;28.10;59.60;;;;;;5078456;28;20452;-87
2022/06/16 13:28:52;;;;;;;7.20;5.30;;;27.90;59.70;;;;;;5040622;28;20482;-85
2022/06/16 13:31:29;;;;;;;8.10;4.90;;;28.10;60.10;;;;;;5045705;28;20476;-85
2022/06/16 13:34:13;;;;;;;5.47;4.23;;;28.40;58.40;;;;;;5045103;28;20440;-85